Phoenix, AZ

3:35 AM MST on October 01, 2016 (GMT -0700)
| | Change Station

Elev -9999 ft 0.00 °N, 0.00 °E | Updated

Clear
Clear
75 °F
Feels Like 75 °F
N
6
Wind Variable Wind from ESE
Gusts mph

Today
High -- | Low -- °F
--% Chance of Precip.
Yesterday
High -- | Low -- °F
Precip. -- in
Pressure 29.89 in
Visibility 10.0 miles
Clouds Few 15000 ft
Dew Point 55 °F
Humidity 50%
Rainfall --
Snow Depth Not available.
6:22 AM 6:11 PM
New Moon, 0% visible
METAR KPHX 010951Z 12006KT 10SM FEW150 26/14 A2995 RMK AO2 SLP122 T02560139 $
Pressure 29.89 in
Visibility 10.0 miles
Clouds Few 15000 ft
Dew Point 55 °F
Humidity 50%
Rainfall --
Snow Depth Not available.
6:22 AM 6:11 PM
New Moon, 0% visible
METAR KPHX 010951Z 12006KT 10SM FEW150 26/14 A2995 RMK AO2 SLP122 T02560139 $

10-Day Weather Forecast

Almanac

Astronomy

Oct. 01, 2016 Rise Set
Actual Time
Civil Twilight
Nautical Twilight
Astronomical Twilight
Moon
Length of Visible Light
Length of Day
Tomorrow will be .
, % of the Moon is Illuminated

Today's Extremes

State Highs State Lows

Community

WunderPhotos

Upload Photos

1,942,908 photos uploaded!

WunderBlog® & News

Nearby

Air Quality

  Air Quality AQ Index Pollutant
Not available.

Snow Depth

Station Depth Elevation

Earthquake Activity

City Distance Mag. Time & Date
Minimum magnitude displayed is 2.5.

Coastal Water Temperatures

Place Temperature

Stations

Nearby Weather Stations

Station Location Temp. Windchill Dew Point Humidity Wind Precip. Elev Updated Type
                   

Watches & Warnings

There are currently no watches in effect.